METAR AND TAF INFORMATION
METAR FOR EPBY
ADDS - METARS form results

(1942 UTC 14 July 2020)
Data provider http://aviationweather.gov/metar/data/
 
METAR text: EPBY 141930Z 15004KT CAVOK 19/10 Q1014
Conditions at: EPBY (BYDGOSZCZ , PL) observed 1930 UTC 14 July 2020
Temperature: 19.0°C (66°F)
Dewpoint: 10.0°C (50°F) [RH = 56%]
Pressure (altimeter): 29.94 inches Hg (1014.0 mb)
Winds: from the SSE (150 degrees) at 5 MPH (4 knots; 2.1 m/s)
Visibility: 6 or more miles (10+ km)
Ceiling: ceiling and visibility are OK
Clouds: unknown
Weather: no significant weather observed at this time

METAR text: EPBY 141900Z 15004KT CAVOK 21/10 Q1014
Conditions at: EPBY (BYDGOSZCZ , PL) observed 1900 UTC 14 July 2020
Temperature: 21.0°C (70°F)
Dewpoint: 10.0°C (50°F) [RH = 49%]
Pressure (altimeter): 29.94 inches Hg (1014.0 mb)
Winds: from the SSE (150 degrees) at 5 MPH (4 knots; 2.1 m/s)
Visibility: 6 or more miles (10+ km)
Ceiling: ceiling and visibility are OK
Clouds: unknown
Weather: no significant weather observed at this time

Forecast for: EPBY (BYDGOSZCZ , PL)
Text: TAF EPBY 141730Z 1418/1518 18006KT CAVOK
Forecast period: 1800 UTC 14 July 2020 to 0600 UTC 15 July 2020
Forecast type: FROM: standard forecast or significant change
Winds: from the S (180 degrees) at 7 MPH (6 knots; 3.1 m/s)
Visibility: 6 or more miles 10+ km)
Ceiling: unknown
Clouds: missing
Weather: NSW  (no significant weather)
Text: BECMG 1506/1508 12010KT
Forecast period: 0600 to 1800 UTC 15 July 2020
Forecast type: BECOMING: Conditions expected to become as follows by 0800 UTC 15 July 2020
Winds: from the ESE (120 degrees) at 12 MPH (10 knots; 5.1 m/s)
Visibility: 6 or more miles 10+ km)
Ceiling: unknown
Clouds: missing
Weather: NSW  (no significant weather)

 AIRPORT MAP

 RUNWAY INFORMATION
Runway 08 Runway length 8202 ft Runway width 197 ft
Runway elevation 236 ft Runway displaced threshold 0 ft Runway heading 82
Runway 26 Runway length 8202 ft Runway width 197 ft
Runway elevation 233 ft Runway displaced threshold 0 ft Runway heading 262

 AIRPORT FREQUENCIES
Type INFO Name INFO Frequency 128.5 MHZ
Type TWR Name BYDGOSZCZ Frequency 131 MHZ

 AIRPORT NEAR NAVIGATION AIDS
Type NDB Name Bydgoszcz Frequency 109 KHZ
Type NDB Name Bydgoszcz Frequency 534 KHZ



Powered by Virtual Airlines Manager [v2.6.2]